createdAt,value
2023-03-20T00:02:21.959Z,10.26
2023-03-20T00:04:50.999Z,10.26
2023-03-20T00:07:19.588Z,10.25
2023-03-20T00:09:49.809Z,10.30
2023-03-20T00:12:22.329Z,10.23
2023-03-20T00:14:51.456Z,10.20
2023-03-20T00:17:21.187Z,10.19
2023-03-20T00:19:56.816Z,10.28
2023-03-20T00:22:25.143Z,10.21
2023-03-20T00:24:54.579Z,10.18
2023-03-20T00:27:26.002Z,10.16
2023-03-20T00:29:58.318Z,10.09
2023-03-20T00:32:27.309Z,10.06
2023-03-20T00:35:02.078Z,10.02
2023-03-20T00:37:30.759Z,10.02
2023-03-20T00:39:59.509Z,10.00
2023-03-20T00:42:28.519Z,10.00
2023-03-20T00:44:59.756Z,9.96
2023-03-20T00:47:28.628Z,9.94
2023-03-20T00:49:58.108Z,9.86
2023-03-20T00:52:27.585Z,9.93
2023-03-20T00:54:55.894Z,9.87
2023-03-20T00:57:29.323Z,9.94
2023-03-20T01:00:07.238Z,9.93
2023-03-20T01:02:36.782Z,9.87
2023-03-20T01:05:06.071Z,9.84
2023-03-20T01:07:34.509Z,9.78
2023-03-20T01:10:05.572Z,9.81
2023-03-20T01:12:34.135Z,9.77
2023-03-20T01:15:02.812Z,9.71
2023-03-20T01:17:31.341Z,9.66
2023-03-20T01:19:59.580Z,9.70
2023-03-20T01:22:27.976Z,9.67
2023-03-20T01:24:56.437Z,9.63
2023-03-20T01:27:24.989Z,9.63
2023-03-20T01:29:53.386Z,9.61
2023-03-20T01:32:22.369Z,9.64
2023-03-20T01:34:53.269Z,9.71
2023-03-20T01:37:25.448Z,9.67
2023-03-20T01:39:56.102Z,9.70
2023-03-20T01:42:24.996Z,9.65
2023-03-20T01:44:53.787Z,9.57
2023-03-20T01:47:24.133Z,9.59
2023-03-20T01:50:22.984Z,9.58
2023-03-20T01:53:01.930Z,9.53
2023-03-20T01:55:30.580Z,9.49
2023-03-20T01:58:06.476Z,9.49
2023-03-20T02:00:36.933Z,9.47
2023-03-20T02:03:07.052Z,9.49
2023-03-20T02:05:55.672Z,9.49
2023-03-20T02:08:32.205Z,9.45
2023-03-20T02:11:04.334Z,9.46
2023-03-20T02:13:33.235Z,9.45
2023-03-20T02:16:13.684Z,9.44
2023-03-20T02:18:56.876Z,9.36
2023-03-20T02:22:00.397Z,9.30
2023-03-20T02:24:44.526Z,9.32
2023-03-20T02:27:31.705Z,9.29
2023-03-20T02:30:35.858Z,9.22
2023-03-20T02:33:23.590Z,9.22
2023-03-20T02:36:17.163Z,9.16
2023-03-20T02:39:16.200Z,9.19
2023-03-20T02:41:48.067Z,9.16
2023-03-20T02:44:37.829Z,9.23
2023-03-20T02:47:49.432Z,9.23
2023-03-20T02:50:40.591Z,9.18
2023-03-20T02:53:45.332Z,9.14
2023-03-20T02:56:55.275Z,9.12
2023-03-20T02:59:50.640Z,9.09
2023-03-20T03:02:22.332Z,9.13
2023-03-20T03:04:53.395Z,9.12
2023-03-20T03:07:24.845Z,9.07
2023-03-20T03:10:00.144Z,9.06
2023-03-20T03:12:30.925Z,9.05
2023-03-20T03:15:05.574Z,8.92
2023-03-20T03:17:35.061Z,8.98
2023-03-20T03:20:15.998Z,8.99
2023-03-20T03:22:44.297Z,8.99
2023-03-20T03:25:13.919Z,9.06
2023-03-20T03:27:44.361Z,9.09
2023-03-20T03:30:26.250Z,9.12
2023-03-20T03:33:19.805Z,9.19
2023-03-20T03:38:03.118Z,8.34
2023-03-20T03:40:59.869Z,9.32
2023-03-20T03:44:16.180Z,9.41
2023-03-20T03:46:56.417Z,9.45
2023-03-20T03:49:28.288Z,9.38
2023-03-20T03:52:00.810Z,9.35
2023-03-20T03:54:37.058Z,9.39
2023-03-20T03:57:46.217Z,9.46
2023-03-20T04:00:19.203Z,9.50
2023-03-20T04:02:50.475Z,9.48
2023-03-20T04:05:31.602Z,9.48
2023-03-20T04:08:03.303Z,9.43
2023-03-20T04:10:32.181Z,9.34
2023-03-20T04:13:02.856Z,9.33
2023-03-20T04:15:34.862Z,9.32
2023-03-20T04:18:04.669Z,9.36
2023-03-20T04:20:34.050Z,9.38
2023-03-20T04:23:02.829Z,9.37
2023-03-20T04:25:37.227Z,9.38
2023-03-20T04:28:05.747Z,9.38
2023-03-20T04:30:58.931Z,9.35
2023-03-20T04:33:36.506Z,9.33
2023-03-20T04:36:14.452Z,9.31
2023-03-20T04:38:43.963Z,9.33
2023-03-20T04:41:12.371Z,9.38
2023-03-20T04:43:43.715Z,9.36
2023-03-20T04:46:12.233Z,9.41
2023-03-20T04:48:41.439Z,9.46
2023-03-20T04:51:10.739Z,9.51
2023-03-20T04:53:49.691Z,9.57
2023-03-20T04:56:18.925Z,9.64
2023-03-20T04:58:49.103Z,9.65
2023-03-20T05:01:19.893Z,9.70
2023-03-20T05:03:49.019Z,9.76
2023-03-20T05:06:17.438Z,9.83
2023-03-20T05:08:47.297Z,9.91
2023-03-20T05:11:16.396Z,9.99
2023-03-20T05:14:06.958Z,10.07
2023-03-20T05:16:50.971Z,10.15
2023-03-20T05:19:35.766Z,10.24
2023-03-20T05:22:20.064Z,10.34
2023-03-20T05:25:11.634Z,10.47
2023-03-20T05:27:48.965Z,10.60
2023-03-20T05:30:43.761Z,10.74
2023-03-20T05:33:43.752Z,10.86
2023-03-20T05:36:31.239Z,10.96
2023-03-20T05:39:19.314Z,11.07
2023-03-20T05:41:53.747Z,11.17
2023-03-20T05:44:39.845Z,11.29
2023-03-20T05:47:38.891Z,11.35
2023-03-20T05:50:45.558Z,11.42
2023-03-20T05:53:39.293Z,11.52
2023-03-20T05:56:17.480Z,11.60
2023-03-20T05:59:08.570Z,11.69
2023-03-20T06:02:12.656Z,11.79
2023-03-20T06:04:44.887Z,11.83
2023-03-20T06:07:21.818Z,11.91
2023-03-20T06:09:59.677Z,11.98
2023-03-20T06:12:28.029Z,12.06
2023-03-20T06:14:56.741Z,12.14
2023-03-20T06:17:27.403Z,12.19
2023-03-20T06:20:01.444Z,12.29
2023-03-20T06:22:31.275Z,12.42
2023-03-20T06:25:00.660Z,12.49
2023-03-20T06:27:36.692Z,12.56
2023-03-20T06:30:08.498Z,12.64
2023-03-20T06:32:38.735Z,12.75
2023-03-20T06:35:09.396Z,12.83
2023-03-20T06:37:38.617Z,12.95
2023-03-20T06:40:11.703Z,13.11
2023-03-20T06:42:41.398Z,13.22
2023-03-20T06:45:11.422Z,13.35
2023-03-20T06:48:16.976Z,13.46
2023-03-20T06:50:46.429Z,13.52
2023-03-20T06:53:17.364Z,13.59
2023-03-20T06:55:55.834Z,13.68
2023-03-20T06:58:24.773Z,13.75
2023-03-20T07:00:54.846Z,13.88
2023-03-20T07:03:23.809Z,13.95
2023-03-20T07:05:52.997Z,14.02
2023-03-20T07:08:22.199Z,14.09
2023-03-20T07:10:51.865Z,14.21
2023-03-20T07:13:20.912Z,14.35
2023-03-20T07:16:08.923Z,14.52
2023-03-20T07:18:40.224Z,14.69
2023-03-20T07:21:09.441Z,14.86
2023-03-20T07:23:39.020Z,15.02
2023-03-20T07:26:07.384Z,15.13
2023-03-20T07:28:38.536Z,15.25
2023-03-20T07:31:29.006Z,15.34
2023-03-20T07:34:11.170Z,15.50
2023-03-20T07:36:44.440Z,15.53
2023-03-20T07:39:13.726Z,15.63
2023-03-20T07:41:46.612Z,15.69
2023-03-20T07:44:24.647Z,15.73
2023-03-20T07:46:55.335Z,15.76
2023-03-20T07:49:24.847Z,15.80
2023-03-20T07:51:57.486Z,15.87
2023-03-20T07:54:26.612Z,15.97
2023-03-20T07:56:55.272Z,16.03
2023-03-20T07:59:26.796Z,16.10
2023-03-20T08:01:55.208Z,16.19
2023-03-20T08:04:30.403Z,16.31
2023-03-20T08:06:59.808Z,16.34
2023-03-20T08:09:28.650Z,16.34
2023-03-20T08:12:02.560Z,16.43
2023-03-20T08:14:31.475Z,16.51
2023-03-20T08:17:13.612Z,16.62
2023-03-20T08:19:43.515Z,16.74
2023-03-20T08:22:12.644Z,16.81
2023-03-20T08:24:41.197Z,16.88
2023-03-20T08:27:10.861Z,16.97
2023-03-20T08:29:39.595Z,17.06
2023-03-20T08:32:14.530Z,17.11
2023-03-20T08:34:43.504Z,17.15
2023-03-20T08:37:13.063Z,17.19
2023-03-20T08:39:41.530Z,17.29
2023-03-20T08:42:10.099Z,17.38
2023-03-20T08:44:39.714Z,17.47
2023-03-20T08:47:10.618Z,17.54
2023-03-20T08:49:39.024Z,17.55
2023-03-20T08:52:07.768Z,17.69
2023-03-20T08:54:36.472Z,17.81
2023-03-20T08:57:12.918Z,17.87
2023-03-20T08:59:41.893Z,17.94
2023-03-20T09:02:12.102Z,18.01
2023-03-20T09:04:40.945Z,18.14
2023-03-20T09:07:09.500Z,18.26
2023-03-20T09:09:38.372Z,18.27
2023-03-20T09:12:07.871Z,18.23
2023-03-20T09:14:38.572Z,18.20
2023-03-20T09:17:07.106Z,18.32
2023-03-20T09:19:39.718Z,18.47
2023-03-20T09:22:08.727Z,18.61
2023-03-20T09:24:37.140Z,18.71
2023-03-20T09:27:07.789Z,18.85
2023-03-20T09:29:36.230Z,18.93
2023-03-20T09:32:05.361Z,18.95
2023-03-20T09:34:34.286Z,19.00
2023-03-20T09:37:03.382Z,18.99
2023-03-20T09:39:35.825Z,18.96
2023-03-20T09:42:32.954Z,18.98
2023-03-20T09:45:23.191Z,19.05
2023-03-20T09:48:11.489Z,19.14
2023-03-20T09:50:48.867Z,19.09
2023-03-20T09:53:37.228Z,19.17
2023-03-20T09:56:09.603Z,19.28
2023-03-20T09:58:38.853Z,19.38
2023-03-20T10:01:07.511Z,19.49
2023-03-20T10:03:50.820Z,19.57
2023-03-20T10:06:19.403Z,19.58
2023-03-20T10:08:47.904Z,19.49
2023-03-20T10:11:19.221Z,19.54
2023-03-20T10:14:00.486Z,19.66
2023-03-20T10:16:45.136Z,19.80
2023-03-20T10:19:18.059Z,19.94
2023-03-20T10:21:48.868Z,19.89
2023-03-20T10:24:19.846Z,19.93
2023-03-20T10:26:52.939Z,19.99
2023-03-20T10:29:25.774Z,20.02
2023-03-20T10:32:18.443Z,20.12
2023-03-20T10:35:10.031Z,20.22
2023-03-20T10:38:20.125Z,20.30
2023-03-20T10:40:48.451Z,20.45
2023-03-20T10:43:25.032Z,20.50
2023-03-20T10:46:04.566Z,20.60
2023-03-20T10:48:52.955Z,20.64
2023-03-20T10:51:22.931Z,20.56
2023-03-20T10:53:56.795Z,20.63
2023-03-20T10:56:32.651Z,20.73
2023-03-20T10:59:07.108Z,20.70
2023-03-20T11:01:37.815Z,20.69
2023-03-20T11:04:06.487Z,20.72
2023-03-20T11:06:40.542Z,20.76
2023-03-20T11:09:19.327Z,20.86
2023-03-20T11:11:49.134Z,20.84
2023-03-20T11:14:22.995Z,20.80
2023-03-20T11:16:52.726Z,20.77
2023-03-20T11:19:22.684Z,20.77
2023-03-20T11:21:56.735Z,20.85
2023-03-20T11:24:37.721Z,20.94
2023-03-20T11:27:29.953Z,21.04
2023-03-20T11:30:02.997Z,21.23
2023-03-20T11:32:42.197Z,21.26
2023-03-20T11:35:19.815Z,21.24
2023-03-20T11:37:50.994Z,21.26
2023-03-20T11:40:24.155Z,21.24
2023-03-20T11:42:54.417Z,21.23
2023-03-20T11:45:22.828Z,21.15
2023-03-20T11:47:57.297Z,21.17
2023-03-20T11:50:35.417Z,21.22
2023-03-20T11:53:18.307Z,21.34
2023-03-20T11:55:56.369Z,21.52
2023-03-20T11:58:25.747Z,21.55
2023-03-20T12:00:54.701Z,21.38
2023-03-20T12:03:32.988Z,21.33
2023-03-20T12:06:01.903Z,21.37
2023-03-20T12:08:31.343Z,21.41
2023-03-20T12:11:01.333Z,21.48
2023-03-20T12:13:33.567Z,21.38
2023-03-20T12:16:03.887Z,21.21
2023-03-20T12:18:36.098Z,21.12
2023-03-20T12:21:24.493Z,21.15
2023-03-20T12:24:22.213Z,21.23
2023-03-20T12:27:08.026Z,21.29
2023-03-20T12:29:43.890Z,21.25
2023-03-20T12:32:36.259Z,21.30
2023-03-20T12:35:14.269Z,21.25
2023-03-20T12:37:44.076Z,21.09
2023-03-20T12:40:16.834Z,21.00
2023-03-20T12:43:27.739Z,20.85
2023-03-20T12:46:03.257Z,20.84
2023-03-20T12:48:56.911Z,20.89
2023-03-20T12:51:47.781Z,21.02
2023-03-20T12:54:31.433Z,21.20
2023-03-20T12:57:19.810Z,21.37
2023-03-20T13:00:16.612Z,21.29
2023-03-20T13:02:55.785Z,21.23
2023-03-20T13:05:43.911Z,21.28
2023-03-20T13:08:18.216Z,21.35
2023-03-20T13:10:55.289Z,21.31
2023-03-20T13:13:38.434Z,21.31
2023-03-20T13:16:16.044Z,21.14
2023-03-20T13:19:02.564Z,21.06
2023-03-20T13:21:41.318Z,20.97
2023-03-20T13:24:24.972Z,20.98
2023-03-20T13:27:08.628Z,21.05
2023-03-20T13:30:07.731Z,21.25
2023-03-20T13:32:48.676Z,21.48
2023-03-20T13:35:17.236Z,21.66
2023-03-20T13:37:49.481Z,21.84
2023-03-20T13:40:28.686Z,21.87
2023-03-20T13:42:58.736Z,21.82
2023-03-20T13:45:40.521Z,21.82
2023-03-20T13:48:32.648Z,21.77
2023-03-20T13:51:34.616Z,21.76
2023-03-20T13:54:42.181Z,21.84
2023-03-20T13:57:39.474Z,21.84
2023-03-20T14:00:25.286Z,21.66
2023-03-20T14:03:15.569Z,21.53
2023-03-20T14:05:44.302Z,21.36
2023-03-20T14:08:27.835Z,21.33
2023-03-20T14:11:21.063Z,21.20
2023-03-20T14:13:56.687Z,21.08
2023-03-20T14:16:27.715Z,20.99
2023-03-20T14:19:24.724Z,20.87
2023-03-20T14:21:56.413Z,20.67
2023-03-20T14:24:24.815Z,20.55
2023-03-20T14:26:58.307Z,20.56
2023-03-20T14:29:29.607Z,20.64
2023-03-20T14:32:18.189Z,20.73
2023-03-20T14:34:59.641Z,20.71
2023-03-20T14:37:39.532Z,20.59
2023-03-20T14:40:20.941Z,20.40
2023-03-20T14:42:58.261Z,20.10
2023-03-20T14:45:36.909Z,19.82
2023-03-20T14:48:14.941Z,19.58
2023-03-20T14:50:46.993Z,19.41
2023-03-20T14:53:20.114Z,19.36
2023-03-20T14:56:12.497Z,19.26
2023-03-20T14:59:00.388Z,19.02
2023-03-20T15:01:38.580Z,18.80
2023-03-20T15:04:09.877Z,18.67
2023-03-20T15:07:06.459Z,18.61
2023-03-20T15:09:38.969Z,18.58
2023-03-20T15:12:07.705Z,18.55
2023-03-20T15:14:43.886Z,18.50
2023-03-20T15:17:21.813Z,18.42
2023-03-20T15:19:50.399Z,18.34
2023-03-20T15:22:20.450Z,17.99
2023-03-20T15:24:56.173Z,17.84
2023-03-20T15:27:29.661Z,17.76
2023-03-20T15:29:59.184Z,17.58
2023-03-20T15:32:27.590Z,17.41
2023-03-20T15:34:56.046Z,17.27
2023-03-20T15:37:24.278Z,17.27
2023-03-20T15:39:56.326Z,17.23
2023-03-20T15:42:25.403Z,17.07
2023-03-20T15:44:54.290Z,16.97
2023-03-20T15:47:24.605Z,16.85
2023-03-20T15:50:03.475Z,16.67
2023-03-20T15:54:17.936Z,15.47
2023-03-20T15:56:45.971Z,16.23
2023-03-20T15:59:14.242Z,16.12
2023-03-20T16:01:42.076Z,15.99
2023-03-20T16:04:09.105Z,15.91
2023-03-20T16:06:37.517Z,15.82
2023-03-20T16:09:05.817Z,15.71
2023-03-20T16:11:38.139Z,15.64
2023-03-20T16:14:10.108Z,15.55
2023-03-20T16:16:37.023Z,15.51
2023-03-20T16:19:05.763Z,15.45
2023-03-20T16:21:37.773Z,15.27
2023-03-20T16:24:09.275Z,15.12
2023-03-20T16:26:37.793Z,14.98
2023-03-20T16:29:06.863Z,14.88
2023-03-20T16:31:35.460Z,14.81
2023-03-20T16:34:17.682Z,14.74
2023-03-20T16:36:52.894Z,14.69
2023-03-20T16:39:21.087Z,14.58
2023-03-20T16:42:10.676Z,14.49
2023-03-20T16:44:39.676Z,14.43
2023-03-20T16:47:32.606Z,14.21
2023-03-20T16:50:19.140Z,14.15
2023-03-20T16:52:51.353Z,13.99
2023-03-20T16:55:22.488Z,13.97
2023-03-20T16:57:50.936Z,13.93
2023-03-20T17:00:29.906Z,13.85
2023-03-20T17:03:00.677Z,13.77
2023-03-20T17:05:56.910Z,13.75
2023-03-20T17:08:29.242Z,13.71
2023-03-20T17:11:03.073Z,13.72
2023-03-20T17:13:30.957Z,13.69
2023-03-20T17:16:02.980Z,13.61
2023-03-20T17:18:30.528Z,13.60
2023-03-20T17:20:57.714Z,13.61
2023-03-20T17:23:25.019Z,13.62
2023-03-20T17:25:52.354Z,13.65
2023-03-20T17:28:21.285Z,13.68
2023-03-20T17:30:49.447Z,13.71
2023-03-20T17:33:18.380Z,13.76
2023-03-20T17:35:46.799Z,13.73
2023-03-20T17:38:18.572Z,13.72
2023-03-20T17:40:46.133Z,13.69
2023-03-20T17:43:13.712Z,13.71
2023-03-20T17:45:41.125Z,13.77
2023-03-20T17:48:26.550Z,13.79
2023-03-20T17:50:53.456Z,13.81
2023-03-20T17:53:24.969Z,13.78
2023-03-20T17:55:52.004Z,13.74
2023-03-20T17:58:22.001Z,13.72
2023-03-20T18:00:53.055Z,13.69
2023-03-20T18:03:20.927Z,13.65
2023-03-20T18:05:48.923Z,13.70
2023-03-20T18:08:20.933Z,13.73
2023-03-20T18:10:48.566Z,13.76
2023-03-20T18:13:20.374Z,13.78
2023-03-20T18:15:49.252Z,13.78
2023-03-20T18:18:18.716Z,13.77
2023-03-20T18:20:50.308Z,13.76
2023-03-20T18:23:18.998Z,13.75
2023-03-20T18:25:45.757Z,13.78
2023-03-20T18:28:20.154Z,13.77
2023-03-20T18:30:48.212Z,13.78
2023-03-20T18:33:17.584Z,13.80
2023-03-20T18:35:46.189Z,13.82
2023-03-20T18:38:13.683Z,13.79
2023-03-20T18:40:42.060Z,13.77
2023-03-20T18:43:10.340Z,13.73
2023-03-20T18:45:39.412Z,13.71
2023-03-20T18:48:26.504Z,13.71
2023-03-20T18:51:00.646Z,13.69
2023-03-20T18:53:29.038Z,13.61
2023-03-20T18:55:55.952Z,13.53
2023-03-20T18:58:27.713Z,13.52
2023-03-20T19:00:55.477Z,13.45
2023-03-20T19:03:23.855Z,13.44
2023-03-20T19:05:55.595Z,13.47
2023-03-20T19:08:22.900Z,13.48
2023-03-20T19:10:51.113Z,13.48
2023-03-20T19:13:19.768Z,13.42
2023-03-20T19:15:46.674Z,13.35
2023-03-20T19:18:18.880Z,13.33
2023-03-20T19:20:48.098Z,13.31
2023-03-20T19:23:16.460Z,13.27
2023-03-20T19:25:44.862Z,13.22
2023-03-20T19:28:40.666Z,13.16
2023-03-20T19:31:09.228Z,13.14
2023-03-20T19:33:37.933Z,13.09
2023-03-20T19:36:05.976Z,13.09
2023-03-20T19:38:36.794Z,13.10
2023-03-20T19:41:04.762Z,13.07
2023-03-20T19:43:32.356Z,13.02
2023-03-20T19:45:59.572Z,13.03
2023-03-20T19:48:49.247Z,12.98
2023-03-20T19:51:27.815Z,12.88
2023-03-20T19:53:56.224Z,12.82
2023-03-20T19:56:23.605Z,12.79
2023-03-20T19:58:50.726Z,12.80
2023-03-20T20:01:19.901Z,12.76
2023-03-20T20:03:49.027Z,12.70
2023-03-20T20:06:19.001Z,12.66
2023-03-20T20:08:49.514Z,12.62
2023-03-20T20:11:20.064Z,12.58
2023-03-20T20:16:38.976Z,12.52
2023-03-20T20:19:10.938Z,12.50
2023-03-20T20:24:25.210Z,12.46
2023-03-20T20:27:14.591Z,12.48
2023-03-20T20:29:46.362Z,12.55
2023-03-20T20:32:13.153Z,12.52
2023-03-20T20:38:25.219Z,12.46
2023-03-20T20:40:17.797Z,12.35
2023-03-20T20:42:51.005Z,12.26
2023-03-20T20:45:25.473Z,12.27
2023-03-20T20:47:53.489Z,12.31
2023-03-20T20:50:24.382Z,12.33
2023-03-20T20:52:52.650Z,12.30
2023-03-20T20:55:23.707Z,12.25
2023-03-20T20:57:52.972Z,12.27
2023-03-20T21:00:22.773Z,12.27
2023-03-20T21:02:49.935Z,12.29
2023-03-20T21:05:17.072Z,12.23
2023-03-20T21:07:46.718Z,12.20
2023-03-20T21:10:15.628Z,12.18
2023-03-20T21:12:58.184Z,12.12
2023-03-20T21:15:27.300Z,11.97
2023-03-20T21:18:01.234Z,11.95
2023-03-20T21:20:30.457Z,11.92
2023-03-20T21:22:58.070Z,11.87
2023-03-20T21:25:38.706Z,11.87
2023-03-20T21:28:07.976Z,11.85
2023-03-20T21:30:44.197Z,11.84
2023-03-20T21:33:20.849Z,11.89
2023-03-20T21:35:48.613Z,11.89
2023-03-20T21:38:58.616Z,11.83
2023-03-20T21:41:09.780Z,11.78
2023-03-20T21:43:36.941Z,11.73
2023-03-20T21:46:56.660Z,11.70
2023-03-20T21:49:40.170Z,11.65
2023-03-20T22:00:51.022Z,11.64
2023-03-20T22:02:56.062Z,11.63
2023-03-20T22:17:30.154Z,11.55
2023-03-20T22:28:38.578Z,11.66
2023-03-20T22:31:26.669Z,11.67
2023-03-20T22:34:09.800Z,11.69
2023-03-20T22:45:00.112Z,11.73
2023-03-20T22:47:21.112Z,11.72
2023-03-20T22:49:48.172Z,11.72
2023-03-20T22:52:29.091Z,11.73
2023-03-20T22:54:59.193Z,11.79
2023-03-20T22:57:40.280Z,11.79
2023-03-20T23:00:16.129Z,11.77
2023-03-20T23:02:43.049Z,11.76
2023-03-20T23:05:10.610Z,11.75
2023-03-20T23:07:37.612Z,11.74
2023-03-20T23:10:09.010Z,11.71
2023-03-20T23:12:36.830Z,11.68
2023-03-20T23:15:04.730Z,11.69
2023-03-20T23:17:32.136Z,11.66
2023-03-20T23:20:10.852Z,11.69
2023-03-20T23:22:39.144Z,11.68
2023-03-20T23:25:16.406Z,11.62
2023-03-20T23:27:51.794Z,11.64
2023-03-20T23:30:19.807Z,11.67
2023-03-20T23:32:47.046Z,11.67
2023-03-20T23:35:14.354Z,11.60
2023-03-20T23:37:41.330Z,11.62
2023-03-20T23:40:08.601Z,11.66
2023-03-20T23:42:35.813Z,11.69
2023-03-20T23:45:17.155Z,11.66
2023-03-20T23:47:47.744Z,11.63
2023-03-20T23:50:28.574Z,11.57
2023-03-20T23:53:09.809Z,11.58
2023-03-20T23:55:42.158Z,11.60
2023-03-20T23:58:16.365Z,11.61
